Time;durP1;ratioP1;P1;durP2;ratioP2;P2;SDS_P1;SDS_P2;PMS_P1;PMS_P2;Temp;Humidity;BMP_temperature;BMP_pressure;BME280_temperature;BME280_humidity;BME280_pressure;Samples;Min_cycle;Max_cycle;Signal;HPM_P1;HPM_P2
2022/07/09 00:02:19;;;;;;;6.70;1.75;;;;;;;;;;5113057;28;20476;-77
2022/07/09 00:04:45;;;;;;;5.32;1.70;;;;;;;;;;5095111;28;20048;-77
2022/07/09 00:07:10;;;;;;;5.47;1.83;;;;;;;;;;5095023;28;20039;-77
2022/07/09 00:09:37;;;;;;;4.63;2.08;;;;;;;;;;5113419;28;20055;-78
2022/07/09 00:12:03;;;;;;;2.15;1.50;;;;;;;;;;5112296;28;20040;-77
2022/07/09 00:14:29;;;;;;;3.20;1.35;;;;;;;;;;5112123;28;20028;-77
2022/07/09 00:16:55;;;;;;;6.97;1.80;;;;;;;;;;5094933;28;20396;-77
2022/07/09 00:19:22;;;;;;;5.75;1.70;;;;;;;;;;5095196;28;20508;-77
2022/07/09 00:21:47;;;;;;;2.90;1.60;;;;;;;;;;5095137;28;20038;-77
2022/07/09 00:24:14;;;;;;;3.70;1.70;;;;;;;;;;5094989;28;20481;-77
2022/07/09 00:26:39;;;;;;;5.10;1.83;;;;;;;;;;5112209;28;20031;-77
2022/07/09 00:29:05;;;;;;;5.53;1.65;;;;;;;;;;5110369;28;20035;-78
2022/07/09 00:31:30;;;;;;;3.47;1.52;;;;;;;;;;5110491;28;20039;-78
2022/07/09 00:33:55;;;;;;;3.83;1.50;;;;;;;;;;5092664;28;20232;-77
2022/07/09 00:36:22;;;;;;;6.07;1.60;;;;;;;;;;5110851;28;20485;-78
2022/07/09 00:38:47;;;;;;;4.35;1.77;;;;;;;;;;5092268;28;20686;-78
2022/07/09 00:41:13;;;;;;;5.55;1.83;;;;;;;;;;5114974;27;20066;-77
2022/07/09 00:43:46;;;;;;;4.20;2.00;;;;;;;;;;5112851;27;20054;-77
2022/07/09 00:46:11;;;;;;;4.78;1.73;;;;;;;;;;5131244;27;20034;-76
2022/07/09 00:48:38;;;;;;;3.08;1.65;;;;;;;;;;5132972;27;20038;-77
2022/07/09 00:51:05;;;;;;;3.88;1.85;;;;;;;;;;5133859;27;20031;-77
2022/07/09 00:53:32;;;;;;;2.83;1.70;;;;;;;;;;5116438;27;20034;-77
2022/07/09 00:56:00;;;;;;;4.05;2.20;;;;;;;;;;5134725;27;20038;-77
2022/07/09 00:58:27;;;;;;;8.75;1.73;;;;;;;;;;5133602;27;20147;-78
2022/07/09 01:00:53;;;;;;;4.43;1.90;;;;;;;;;;5133315;27;20038;-78
2022/07/09 01:03:19;;;;;;;3.97;1.98;;;;;;;;;;5135009;27;20031;-77
2022/07/09 01:05:45;;;;;;;13.88;2.60;;;;;;;;;;5149526;27;20391;-78
2022/07/09 01:08:10;;;;;;;5.15;1.73;;;;;;;;;;5156259;27;20456;-78
2022/07/09 01:10:36;;;;;;;7.65;1.77;;;;;;;;;;5139050;27;20026;-77
2022/07/09 01:13:04;;;;;;;3.55;1.83;;;;;;;;;;5156295;27;20130;-77
2022/07/09 01:15:30;;;;;;;7.03;1.83;;;;;;;;;;5156301;27;20115;-78
2022/07/09 01:17:57;;;;;;;4.63;1.60;;;;;;;;;;5138962;27;20129;-76
2022/07/09 01:20:24;;;;;;;2.65;1.55;;;;;;;;;;5156506;27;20038;-77
2022/07/09 01:22:52;;;;;;;4.80;1.80;;;;;;;;;;5139236;27;20030;-76
2022/07/09 01:25:19;;;;;;;9.95;2.28;;;;;;;;;;5156067;27;20499;-77
2022/07/09 01:27:46;;;;;;;2.03;1.55;;;;;;;;;;5138946;27;20027;-77
2022/07/09 01:30:23;;;;;;;3.13;1.70;;;;;;;;;;5139250;27;20038;-77
2022/07/09 01:32:49;;;;;;;4.38;1.70;;;;;;;;;;5156202;27;20062;-77
2022/07/09 01:35:16;;;;;;;3.55;2.22;;;;;;;;;;5146295;27;20031;-78
2022/07/09 01:37:41;;;;;;;3.92;1.73;;;;;;;;;;5133102;27;20068;-77
2022/07/09 01:40:08;;;;;;;4.38;1.55;;;;;;;;;;5097682;28;20047;-77
2022/07/09 01:42:34;;;;;;;9.48;1.80;;;;;;;;;;5097670;28;20042;-77
2022/07/09 01:45:00;;;;;;;4.85;1.85;;;;;;;;;;5096628;28;20043;-77
2022/07/09 01:47:25;;;;;;;7.55;1.98;;;;;;;;;;5114116;28;20027;-77
2022/07/09 01:49:52;;;;;;;10.95;2.95;;;;;;;;;;5115687;28;20032;-77
2022/07/09 01:52:18;;;;;;;16.08;2.60;;;;;;;;;;5114436;28;20035;-77
2022/07/09 01:54:44;;;;;;;7.43;3.13;;;;;;;;;;5114142;28;20042;-77
2022/07/09 01:57:10;;;;;;;8.43;2.83;;;;;;;;;;5131737;27;20032;-77
2022/07/09 01:59:35;;;;;;;7.32;2.50;;;;;;;;;;5115810;28;20039;-77
2022/07/09 02:02:01;;;;;;;5.28;1.92;;;;;;;;;;5114094;28;20054;-78
2022/07/09 02:04:27;;;;;;;6.78;2.22;;;;;;;;;;5131186;27;20040;-77
2022/07/09 02:06:56;;;;;;;4.10;2.03;;;;;;;;;;5097449;28;20397;-77
2022/07/09 02:09:21;;;;;;;6.15;2.20;;;;;;;;;;5134488;27;20035;-76
2022/07/09 02:11:49;;;;;;;6.15;2.53;;;;;;;;;;5135784;27;20384;-76
2022/07/09 02:14:15;;;;;;;11.18;2.85;;;;;;;;;;5134568;27;20400;-77
2022/07/09 02:16:40;;;;;;;96.43;5.10;;;;;;;;;;5134193;27;20034;-75
2022/07/09 02:19:07;;;;;;;9.98;3.80;;;;;;;;;;5117009;27;20039;-75
2022/07/09 02:21:34;;;;;;;8.13;3.17;;;;;;;;;;5117427;27;20027;-75
2022/07/09 02:23:59;;;;;;;9.00;3.17;;;;;;;;;;5135545;27;20042;-75
2022/07/09 02:26:29;;;;;;;7.18;3.63;;;;;;;;;;5134103;27;20447;-75
2022/07/09 02:28:55;;;;;;;8.75;3.53;;;;;;;;;;5134301;27;20039;-75
2022/07/09 02:31:20;;;;;;;7.32;3.30;;;;;;;;;;5134050;27;20047;-75
2022/07/09 02:33:47;;;;;;;6.93;3.70;;;;;;;;;;5133901;27;20046;-75
2022/07/09 02:36:13;;;;;;;8.18;2.55;;;;;;;;;;5116952;27;20025;-75
2022/07/09 02:38:39;;;;;;;10.10;2.60;;;;;;;;;;5123772;27;20044;-75
2022/07/09 02:41:04;;;;;;;6.47;2.67;;;;;;;;;;5096597;28;20125;-75
2022/07/09 02:43:30;;;;;;;10.60;2.63;;;;;;;;;;5113359;28;20046;-75
2022/07/09 02:45:56;;;;;;;11.88;3.00;;;;;;;;;;5096015;28;20036;-75
2022/07/09 02:48:27;;;;;;;6.55;2.78;;;;;;;;;;5114569;28;20031;-75
2022/07/09 02:50:53;;;;;;;5.38;2.55;;;;;;;;;;5114347;28;20546;-75
2022/07/09 02:53:19;;;;;;;6.53;2.55;;;;;;;;;;5113187;28;20039;-75
2022/07/09 02:55:45;;;;;;;14.05;4.00;;;;;;;;;;5113226;28;20090;-75
2022/07/09 02:58:12;;;;;;;11.40;3.58;;;;;;;;;;5112773;28;20047;-76
2022/07/09 03:00:41;;;;;;;14.55;4.28;;;;;;;;;;5113125;28;20038;-76
2022/07/09 03:03:08;;;;;;;13.02;4.60;;;;;;;;;;5095721;28;20040;-75
2022/07/09 03:05:34;;;;;;;17.65;4.57;;;;;;;;;;5112952;28;20393;-75
2022/07/09 03:08:00;;;;;;;17.20;4.07;;;;;;;;;;5116783;27;20027;-75
2022/07/09 03:10:26;;;;;;;18.95;4.20;;;;;;;;;;5134232;27;20034;-75
2022/07/09 03:12:51;;;;;;;10.90;4.40;;;;;;;;;;5133223;27;20403;-75
2022/07/09 03:15:17;;;;;;;10.02;4.18;;;;;;;;;;5115699;27;20507;-76
2022/07/09 03:17:44;;;;;;;9.18;4.82;;;;;;;;;;5132277;27;20043;-75
2022/07/09 03:20:11;;;;;;;15.23;4.30;;;;;;;;;;5133246;27;20033;-75
2022/07/09 03:22:38;;;;;;;18.52;5.40;;;;;;;;;;5134282;27;20035;-75
2022/07/09 03:25:05;;;;;;;7.55;4.28;;;;;;;;;;5133173;27;20038;-75
2022/07/09 03:27:31;;;;;;;22.20;4.45;;;;;;;;;;5132666;27;20385;-76
2022/07/09 03:29:58;;;;;;;16.00;4.80;;;;;;;;;;5134168;27;20488;-76
2022/07/09 03:32:24;;;;;;;11.77;4.55;;;;;;;;;;5132797;27;20027;-75
2022/07/09 03:34:49;;;;;;;11.02;4.35;;;;;;;;;;5134255;27;20087;-75
2022/07/09 03:37:16;;;;;;;13.05;4.70;;;;;;;;;;5132957;27;20039;-75
2022/07/09 03:39:42;;;;;;;9.52;4.18;;;;;;;;;;5120618;27;20509;-75
2022/07/09 03:42:08;;;;;;;9.10;3.95;;;;;;;;;;5112380;28;20126;-75
2022/07/09 03:44:35;;;;;;;6.22;4.18;;;;;;;;;;5112344;28;20429;-75
2022/07/09 03:47:00;;;;;;;6.75;4.57;;;;;;;;;;5095386;28;20040;-75
2022/07/09 03:49:26;;;;;;;6.80;3.88;;;;;;;;;;5112354;28;20122;-75
2022/07/09 03:51:52;;;;;;;4.53;3.70;;;;;;;;;;5111953;28;20437;-75
2022/07/09 03:54:17;;;;;;;4.60;3.25;;;;;;;;;;5112245;28;20036;-75
2022/07/09 03:56:44;;;;;;;4.85;3.67;;;;;;;;;;5095158;28;20481;-75
2022/07/09 03:59:09;;;;;;;5.22;3.75;;;;;;;;;;5111667;28;20084;-75
2022/07/09 04:01:35;;;;;;;13.38;3.92;;;;;;;;;;5095422;28;20063;-75
2022/07/09 04:04:01;;;;;;;4.43;3.20;;;;;;;;;;5095686;28;20039;-75
2022/07/09 04:06:27;;;;;;;4.05;3.55;;;;;;;;;;5113331;28;20039;-75
2022/07/09 04:08:53;;;;;;;9.57;3.15;;;;;;;;;;5095273;28;20038;-74
2022/07/09 04:11:18;;;;;;;11.02;3.75;;;;;;;;;;5111884;28;20069;-75
2022/07/09 04:13:43;;;;;;;12.75;3.28;;;;;;;;;;5111599;27;20040;-75
2022/07/09 04:16:09;;;;;;;4.43;2.75;;;;;;;;;;5113047;28;20071;-74
2022/07/09 04:18:35;;;;;;;8.50;3.22;;;;;;;;;;5112062;28;20035;-74
2022/07/09 04:21:01;;;;;;;7.97;3.10;;;;;;;;;;5092493;28;20036;-75
2022/07/09 04:23:27;;;;;;;8.32;2.95;;;;;;;;;;5096366;28;20042;-75
2022/07/09 04:25:53;;;;;;;11.98;3.25;;;;;;;;;;5114953;28;20077;-75
2022/07/09 04:28:19;;;;;;;8.43;3.03;;;;;;;;;;5113592;28;20131;-74
2022/07/09 04:30:45;;;;;;;19.63;3.85;;;;;;;;;;5114891;28;20143;-75
2022/07/09 04:33:11;;;;;;;15.20;2.80;;;;;;;;;;5113462;28;20047;-75
2022/07/09 04:35:37;;;;;;;8.95;2.60;;;;;;;;;;5154126;27;20031;-75
2022/07/09 04:38:03;;;;;;;9.68;3.03;;;;;;;;;;5154768;27;20479;-75
2022/07/09 04:40:30;;;;;;;13.20;3.15;;;;;;;;;;5138704;27;20042;-75
2022/07/09 04:42:56;;;;;;;6.13;2.92;;;;;;;;;;5154706;27;20391;-75
2022/07/09 04:45:22;;;;;;;6.03;2.65;;;;;;;;;;5137190;27;20110;-75
2022/07/09 04:47:48;;;;;;;3.17;2.20;;;;;;;;;;5154398;27;20526;-75
2022/07/09 04:50:13;;;;;;;4.95;2.72;;;;;;;;;;5154510;27;20034;-75
2022/07/09 04:52:40;;;;;;;5.85;2.95;;;;;;;;;;5155829;27;20528;-76
2022/07/09 04:55:06;;;;;;;12.48;3.33;;;;;;;;;;5136987;27;20027;-75
2022/07/09 04:57:33;;;;;;;8.10;3.08;;;;;;;;;;5156277;27;20041;-74
2022/07/09 04:59:59;;;;;;;7.07;2.92;;;;;;;;;;5139130;27;20034;-75
2022/07/09 05:02:26;;;;;;;11.60;3.05;;;;;;;;;;5156840;27;20079;-75
2022/07/09 05:04:52;;;;;;;10.02;2.83;;;;;;;;;;5125166;27;20091;-74
2022/07/09 05:07:18;;;;;;;9.55;2.60;;;;;;;;;;5137040;27;20031;-74
2022/07/09 05:09:44;;;;;;;6.55;2.60;;;;;;;;;;5118267;27;20031;-74
2022/07/09 05:12:10;;;;;;;14.57;3.20;;;;;;;;;;5135678;27;20039;-74
2022/07/09 05:14:39;;;;;;;14.02;3.72;;;;;;;;;;5118018;27;20031;-75
2022/07/09 05:17:05;;;;;;;10.18;3.17;;;;;;;;;;5135498;27;20438;-75
2022/07/09 05:19:31;;;;;;;12.90;3.30;;;;;;;;;;5135482;27;20039;-75
2022/07/09 05:21:58;;;;;;;10.15;3.22;;;;;;;;;;5135290;27;20403;-75
2022/07/09 05:24:23;;;;;;;6.78;2.72;;;;;;;;;;5136484;27;20442;-75
2022/07/09 05:26:49;;;;;;;10.77;2.83;;;;;;;;;;5136408;27;20474;-75
2022/07/09 05:29:16;;;;;;;8.60;3.20;;;;;;;;;;5117820;27;20031;-75
2022/07/09 05:31:42;;;;;;;6.90;3.53;;;;;;;;;;5136572;27;20101;-74
2022/07/09 05:34:08;;;;;;;8.73;3.63;;;;;;;;;;5115749;27;20134;-76
2022/07/09 05:36:34;;;;;;;6.05;3.65;;;;;;;;;;5134251;27;20495;-75
2022/07/09 05:39:01;;;;;;;7.60;3.33;;;;;;;;;;5134292;27;20111;-75
2022/07/09 05:41:27;;;;;;;15.85;4.53;;;;;;;;;;5128341;27;20038;-74
2022/07/09 05:43:53;;;;;;;13.23;4.93;;;;;;;;;;5156863;27;20154;-75
2022/07/09 05:46:20;;;;;;;8.40;5.25;;;;;;;;;;5137004;27;20446;-74
2022/07/09 05:48:46;;;;;;;14.48;4.60;;;;;;;;;;5136559;27;20507;-74
2022/07/09 05:51:12;;;;;;;12.18;4.25;;;;;;;;;;5117282;27;20038;-75
2022/07/09 05:53:37;;;;;;;10.77;5.47;;;;;;;;;;5134410;27;20400;-75
2022/07/09 05:56:03;;;;;;;12.77;5.57;;;;;;;;;;5117538;27;20043;-75
2022/07/09 05:58:29;;;;;;;13.80;5.30;;;;;;;;;;5117283;27;20129;-75
2022/07/09 06:00:54;;;;;;;13.25;5.40;;;;;;;;;;5135875;27;20121;-75
2022/07/09 06:03:20;;;;;;;16.20;5.63;;;;;;;;;;5136222;27;20087;-74
2022/07/09 06:05:45;;;;;;;14.32;6.13;;;;;;;;;;5135655;27;20118;-75
2022/07/09 06:08:12;;;;;;;9.95;4.55;;;;;;;;;;5117262;27;20092;-74
2022/07/09 06:10:37;;;;;;;11.85;4.70;;;;;;;;;;5117077;27;20039;-75
2022/07/09 06:13:03;;;;;;;10.48;5.43;;;;;;;;;;5142682;27;20123;-74
2022/07/09 06:15:28;;;;;;;14.48;5.47;;;;;;;;;;5155056;27;20034;-74
2022/07/09 06:17:54;;;;;;;11.18;5.35;;;;;;;;;;5156370;27;20019;-75
2022/07/09 06:20:19;;;;;;;10.68;5.53;;;;;;;;;;5156238;27;20046;-75
2022/07/09 06:22:46;;;;;;;12.02;4.22;;;;;;;;;;5146614;27;20024;-75
2022/07/09 06:25:12;;;;;;;10.77;4.80;;;;;;;;;;5113538;28;20044;-75
2022/07/09 06:27:40;;;;;;;16.42;4.78;;;;;;;;;;5096358;28;20028;-75
2022/07/09 06:30:06;;;;;;;9.48;4.38;;;;;;;;;;5096769;28;20059;-74
2022/07/09 06:32:32;;;;;;;10.05;3.97;;;;;;;;;;5113559;28;20051;-75
2022/07/09 06:34:58;;;;;;;8.20;4.78;;;;;;;;;;5125354;27;20027;-75
2022/07/09 06:37:24;;;;;;;10.80;3.97;;;;;;;;;;5137082;27;20035;-76
2022/07/09 06:39:50;;;;;;;14.80;4.47;;;;;;;;;;5154163;27;20055;-75
2022/07/09 06:42:19;;;;;;;12.07;4.40;;;;;;;;;;5137148;27;20075;-75
2022/07/09 06:44:49;;;;;;;5.43;3.35;;;;;;;;;;5137204;27;20033;-75
2022/07/09 06:47:14;;;;;;;7.57;3.60;;;;;;;;;;5154532;27;20035;-75
2022/07/09 06:49:40;;;;;;;9.40;4.00;;;;;;;;;;5155885;27;20038;-75
2022/07/09 06:52:07;;;;;;;13.43;4.10;;;;;;;;;;5155220;27;20126;-75
2022/07/09 06:54:34;;;;;;;12.80;4.63;;;;;;;;;;5136992;27;20121;-75
2022/07/09 06:57:02;;;;;;;7.38;3.20;;;;;;;;;;5128348;27;20065;-75
2022/07/09 06:59:29;;;;;;;6.38;3.20;;;;;;;;;;5114518;28;20034;-77
2022/07/09 07:01:55;;;;;;;7.68;2.95;;;;;;;;;;5113667;28;20079;-77
2022/07/09 07:04:21;;;;;;;11.65;3.72;;;;;;;;;;5114595;28;20126;-80
2022/07/09 07:06:48;;;;;;;6.13;2.97;;;;;;;;;;5113722;28;20161;-76
2022/07/09 07:09:16;;;;;;;6.43;3.38;;;;;;;;;;5095812;28;20036;-77
2022/07/09 07:11:42;;;;;;;8.20;3.78;;;;;;;;;;5109106;27;20566;-77
2022/07/09 07:14:07;;;;;;;11.10;3.90;;;;;;;;;;5117590;27;20059;-78
2022/07/09 07:16:32;;;;;;;6.90;3.55;;;;;;;;;;5119441;27;20019;-78
2022/07/09 07:18:58;;;;;;;12.45;3.78;;;;;;;;;;5119583;27;20062;-79
2022/07/09 07:21:23;;;;;;;8.68;3.72;;;;;;;;;;5136328;27;20046;-79
2022/07/09 07:23:49;;;;;;;7.25;3.30;;;;;;;;;;5118165;27;20041;-78
2022/07/09 07:26:14;;;;;;;8.00;3.78;;;;;;;;;;5118354;27;20035;-77
2022/07/09 07:28:40;;;;;;;6.85;4.20;;;;;;;;;;5117985;27;20480;-78
2022/07/09 07:31:05;;;;;;;6.72;2.85;;;;;;;;;;5117614;27;20031;-78
2022/07/09 07:33:32;;;;;;;6.70;2.88;;;;;;;;;;5116776;27;20089;-78
2022/07/09 07:35:58;;;;;;;6.45;3.10;;;;;;;;;;5118436;27;20492;-77
2022/07/09 07:38:27;;;;;;;5.43;2.47;;;;;;;;;;5095421;28;20043;-77
2022/07/09 07:40:53;;;;;;;9.43;2.83;;;;;;;;;;5113164;28;20035;-76
2022/07/09 07:43:18;;;;;;;6.75;2.85;;;;;;;;;;5111583;28;20109;-75
2022/07/09 07:45:43;;;;;;;5.78;2.70;;;;;;;;;;5113442;28;20028;-75
2022/07/09 07:48:09;;;;;;;7.68;3.08;;;;;;;;;;5113449;28;20051;-74
2022/07/09 07:50:38;;;;;;;9.18;2.85;;;;;;;;;;5112293;28;20039;-75
2022/07/09 07:53:07;;;;;;;5.95;2.40;;;;;;;;;;5095391;28;20104;-75
2022/07/09 07:55:34;;;;;;;7.88;3.10;;;;;;;;;;5112230;28;20122;-75
2022/07/09 07:58:00;;;;;;;6.82;2.60;;;;;;;;;;5099158;28;20051;-75
2022/07/09 08:00:25;;;;;;;5.85;2.28;;;;;;;;;;5116460;28;20397;-76
2022/07/09 08:02:51;;;;;;;5.97;2.20;;;;;;;;;;5115252;28;20487;-75
2022/07/09 08:05:16;;;;;;;5.55;2.30;;;;;;;;;;5127365;27;20031;-77
2022/07/09 08:07:44;;;;;;;3.67;1.95;;;;;;;;;;5138732;27;20019;-76
2022/07/09 08:10:10;;;;;;;6.10;2.13;;;;;;;;;;5135211;27;20038;-76
2022/07/09 08:12:36;;;;;;;4.03;1.75;;;;;;;;;;5137731;27;20038;-76
2022/07/09 08:15:01;;;;;;;5.20;2.40;;;;;;;;;;5136607;27;20050;-76
2022/07/09 08:17:27;;;;;;;6.85;2.45;;;;;;;;;;5136263;27;20033;-76
2022/07/09 08:19:53;;;;;;;6.95;2.30;;;;;;;;;;5137118;27;20088;-76
2022/07/09 08:22:18;;;;;;;4.30;2.30;;;;;;;;;;5138265;27;20031;-75
2022/07/09 08:24:43;;;;;;;3.70;1.95;;;;;;;;;;5138786;27;20039;-76
2022/07/09 08:27:09;;;;;;;5.38;1.75;;;;;;;;;;5137945;27;20589;-77
2022/07/09 08:29:37;;;;;;;5.32;1.83;;;;;;;;;;5138026;27;20027;-76
2022/07/09 08:32:04;;;;;;;4.45;1.90;;;;;;;;;;5136093;27;20035;-77
2022/07/09 08:34:29;;;;;;;5.10;2.15;;;;;;;;;;5117420;27;20035;-77
2022/07/09 08:36:56;;;;;;;4.22;1.50;;;;;;;;;;5115876;28;20426;-76
2022/07/09 08:39:22;;;;;;;5.93;1.70;;;;;;;;;;5131967;27;20043;-76
2022/07/09 08:41:47;;;;;;;5.30;1.58;;;;;;;;;;5115595;28;20402;-76
2022/07/09 08:44:13;;;;;;;3.42;1.50;;;;;;;;;;5116280;28;20071;-76
2022/07/09 08:46:39;;;;;;;3.70;1.65;;;;;;;;;;5116204;28;20035;-76
2022/07/09 08:49:06;;;;;;;3.30;1.50;;;;;;;;;;5115771;28;20042;-77
2022/07/09 08:51:34;;;;;;;2.78;1.60;;;;;;;;;;5118084;28;20405;-77
2022/07/09 08:54:00;;;;;;;4.85;1.75;;;;;;;;;;5115386;28;20032;-76
2022/07/09 08:56:26;;;;;;;1.80;1.40;;;;;;;;;;5116109;28;20131;-76
2022/07/09 08:58:52;;;;;;;3.28;1.40;;;;;;;;;;5115079;28;20118;-75
2022/07/09 09:01:18;;;;;;;6.20;1.70;;;;;;;;;;5098134;28;20042;-76
2022/07/09 09:03:45;;;;;;;5.40;1.35;;;;;;;;;;5115106;28;20118;-75
2022/07/09 09:06:12;;;;;;;4.10;1.60;;;;;;;;;;5128074;27;20031;-75
2022/07/09 09:08:41;;;;;;;1.85;1.35;;;;;;;;;;5118064;27;20132;-76
2022/07/09 09:11:14;;;;;;;3.30;1.20;;;;;;;;;;5135218;27;20038;-75
2022/07/09 09:13:42;;;;;;;2.85;1.27;;;;;;;;;;5135493;27;20070;-75
2022/07/09 09:16:09;;;;;;;2.65;1.25;;;;;;;;;;5118414;27;20030;-75
2022/07/09 09:18:43;;;;;;;5.88;1.50;;;;;;;;;;5135436;27;20046;-75
2022/07/09 09:21:11;;;;;;;3.47;1.55;;;;;;;;;;5134488;27;20035;-75
2022/07/09 09:23:44;;;;;;;4.00;0.90;;;;;;;;;;5117875;27;20476;-75
2022/07/09 09:26:12;;;;;;;2.88;1.10;;;;;;;;;;5136274;27;20039;-75
2022/07/09 09:28:50;;;;;;;2.22;1.00;;;;;;;;;;5118271;27;20480;-75
2022/07/09 09:31:35;;;;;;;2.10;0.80;;;;;;;;;;5135268;27;20084;-75
2022/07/09 09:34:06;;;;;;;6.70;1.10;;;;;;;;;;5135362;27;20088;-75
2022/07/09 09:36:39;;;;;;;4.78;1.10;;;;;;;;;;5134639;27;20515;-75
2022/07/09 09:39:14;;;;;;;2.40;1.00;;;;;;;;;;5118264;27;20032;-80
2022/07/09 09:41:42;;;;;;;4.38;1.05;;;;;;;;;;5139167;27;20031;-79
2022/07/09 09:44:11;;;;;;;4.55;1.20;;;;;;;;;;5121857;27;20046;-79
2022/07/09 09:46:39;;;;;;;2.90;1.08;;;;;;;;;;5120896;27;20015;-76
2022/07/09 09:49:10;;;;;;;7.00;1.40;;;;;;;;;;5117560;27;20031;-76
2022/07/09 09:51:38;;;;;;;2.20;1.00;;;;;;;;;;5136087;27;20507;-76
2022/07/09 09:54:04;;;;;;;2.72;1.10;;;;;;;;;;5135819;27;20041;-77
2022/07/09 09:56:32;;;;;;;3.30;1.00;;;;;;;;;;5136128;27;20038;-76
2022/07/09 09:58:59;;;;;;;3.00;1.25;;;;;;;;;;5135706;27;20378;-76
2022/07/09 10:01:25;;;;;;;4.43;1.17;;;;;;;;;;5117350;27;20046;-76
2022/07/09 10:03:53;;;;;;;3.97;1.55;;;;;;;;;;5134480;27;20043;-76
2022/07/09 10:06:21;;;;;;;3.55;0.98;;;;;;;;;;5117260;27;20509;-75
2022/07/09 10:08:50;;;;;;;0.80;0.75;;;;;;;;;;5117745;27;20023;-76
2022/07/09 10:11:17;;;;;;;4.85;1.15;;;;;;;;;;5117507;27;20035;-76
2022/07/09 10:13:54;;;;;;;2.08;0.90;;;;;;;;;;5133787;27;20035;-75
2022/07/09 10:16:39;;;;;;;4.22;2.08;;;;;;;;;;5134391;27;20031;-75
2022/07/09 10:19:06;;;;;;;1.95;1.10;;;;;;;;;;5116642;27;20108;-75
2022/07/09 10:21:40;;;;;;;6.47;1.00;;;;;;;;;;5133560;27;20043;-74
2022/07/09 10:24:11;;;;;;;3.17;1.08;;;;;;;;;;5135241;27;20111;-76
2022/07/09 10:26:43;;;;;;;5.32;1.52;;;;;;;;;;5135241;27;20045;-76
2022/07/09 10:29:26;;;;;;;3.92;1.20;;;;;;;;;;5116600;27;20046;-76
2022/07/09 10:31:53;;;;;;;2.55;1.13;;;;;;;;;;5134260;27;20046;-76
2022/07/09 10:34:31;;;;;;;5.90;1.10;;;;;;;;;;5133715;27;20122;-76
2022/07/09 10:37:02;;;;;;;2.42;0.90;;;;;;;;;;5133429;27;20468;-77
2022/07/09 10:39:29;;;;;;;2.72;0.95;;;;;;;;;;5117483;27;20101;-76
2022/07/09 10:42:06;;;;;;;3.28;1.00;;;;;;;;;;5113324;28;20100;-76
2022/07/09 10:44:36;;;;;;;3.85;1.00;;;;;;;;;;5114390;28;20071;-75
2022/07/09 10:47:03;;;;;;;1.48;1.05;;;;;;;;;;5113164;28;20111;-74
2022/07/09 10:49:29;;;;;;;5.07;3.13;;;;;;;;;;5113137;28;20426;-75
2022/07/09 10:51:58;;;;;;;3.60;2.13;;;;;;;;;;5113109;28;20023;-74
2022/07/09 10:54:25;;;;;;;3.53;1.40;;;;;;;;;;5113088;28;20042;-74
2022/07/09 10:56:51;;;;;;;4.40;1.00;;;;;;;;;;5113090;28;20039;-74
2022/07/09 10:59:18;;;;;;;2.08;0.98;;;;;;;;;;5113187;28;20031;-74
2022/07/09 11:01:43;;;;;;;0.95;0.85;;;;;;;;;;5095815;28;20063;-74
2022/07/09 11:04:09;;;;;;;2.80;1.20;;;;;;;;;;5112656;28;20067;-75
2022/07/09 11:06:45;;;;;;;2.17;1.15;;;;;;;;;;5112682;28;20442;-74
2022/07/09 11:09:14;;;;;;;4.93;1.10;;;;;;;;;;5126985;27;20050;-74
2022/07/09 11:11:44;;;;;;;2.97;1.10;;;;;;;;;;5134681;27;20027;-74
2022/07/09 11:14:11;;;;;;;4.20;1.75;;;;;;;;;;5116345;27;20042;-75
2022/07/09 11:16:38;;;;;;;6.45;1.30;;;;;;;;;;5107003;28;20100;-74
2022/07/09 11:19:14;;;;;;;10.20;1.23;;;;;;;;;;5112383;28;20032;-74
2022/07/09 11:21:40;;;;;;;1.95;1.13;;;;;;;;;;5113901;28;20067;-75
2022/07/09 11:24:13;;;;;;;2.83;0.95;;;;;;;;;;5112656;28;20066;-76
2022/07/09 11:26:39;;;;;;;4.05;1.00;;;;;;;;;;5113625;28;20046;-74
2022/07/09 11:29:07;;;;;;;3.10;1.10;;;;;;;;;;5113653;28;20114;-74
2022/07/09 11:31:34;;;;;;;2.72;1.20;;;;;;;;;;5095177;28;20039;-74
2022/07/09 11:34:33;;;;;;;4.05;0.90;;;;;;;;;;5112438;28;20084;-75
2022/07/09 11:36:54;;;;;;;2.75;1.00;;;;;;;;;;5109224;28;20044;-75
2022/07/09 11:39:33;;;;;;;3.08;1.50;;;;;;;;;;5139853;27;20034;-78
2022/07/09 11:42:00;;;;;;;1.80;0.80;;;;;;;;;;5153314;27;20133;-76
2022/07/09 11:44:28;;;;;;;2.67;1.00;;;;;;;;;;5136591;27;20041;-77
2022/07/09 11:47:10;;;;;;;3.53;1.10;;;;;;;;;;5153851;27;20034;-77
2022/07/09 11:49:43;;;;;;;1.90;0.80;;;;;;;;;;5154896;27;20189;-80
2022/07/09 11:52:27;;;;;;;2.17;0.70;;;;;;;;;;5137869;27;20108;-78
2022/07/09 11:55:07;;;;;;;3.05;0.70;;;;;;;;;;5137178;27;20035;-78
2022/07/09 11:57:34;;;;;;;1.55;0.70;;;;;;;;;;5139302;27;20369;-79
2022/07/09 12:00:01;;;;;;;2.25;0.77;;;;;;;;;;5155959;27;20045;-78
2022/07/09 12:02:33;;;;;;;2.45;0.80;;;;;;;;;;5138519;27;20022;-78
2022/07/09 12:05:00;;;;;;;1.15;0.80;;;;;;;;;;5142376;27;20035;-78
2022/07/09 12:07:28;;;;;;;3.20;0.85;;;;;;;;;;5160637;27;20116;-78
2022/07/09 12:10:05;;;;;;;2.50;0.65;;;;;;;;;;5143011;27;20045;-78
2022/07/09 12:12:33;;;;;;;4.30;0.95;;;;;;;;;;5124521;28;20031;-78
2022/07/09 12:15:00;;;;;;;9.70;0.90;;;;;;;;;;5140464;27;20049;-78
2022/07/09 12:17:29;;;;;;;1.27;0.80;;;;;;;;;;5118693;28;20031;-78
2022/07/09 12:19:56;;;;;;;2.33;1.30;;;;;;;;;;5135231;27;20035;-78
2022/07/09 12:22:23;;;;;;;5.18;2.70;;;;;;;;;;5149370;27;20042;-77
2022/07/09 12:24:50;;;;;;;2.78;0.98;;;;;;;;;;5136158;27;20031;-78
2022/07/09 12:27:15;;;;;;;2.67;1.00;;;;;;;;;;5140608;27;20031;-79
2022/07/09 12:29:41;;;;;;;0.73;0.55;;;;;;;;;;5122496;28;20047;-79
2022/07/09 12:32:08;;;;;;;4.85;0.68;;;;;;;;;;5115894;28;20038;-79
2022/07/09 12:34:34;;;;;;;1.33;0.80;;;;;;;;;;5098259;28;20039;-78
2022/07/09 12:37:00;;;;;;;1.30;0.60;;;;;;;;;;5097736;28;20040;-75
2022/07/09 12:39:26;;;;;;;8.75;1.35;;;;;;;;;;5130058;27;20503;-79
2022/07/09 12:41:51;;;;;;;16.05;1.35;;;;;;;;;;5118437;28;20063;-78
2022/07/09 12:44:17;;;;;;;6.55;1.42;;;;;;;;;;5136087;27;20030;-75
2022/07/09 12:46:42;;;;;;;12.35;1.35;;;;;;;;;;5137284;27;20073;-75
2022/07/09 12:49:08;;;;;;;5.03;1.70;;;;;;;;;;5137153;27;20507;-75
2022/07/09 12:51:34;;;;;;;4.50;1.00;;;;;;;;;;5137293;27;20031;-75
2022/07/09 12:54:00;;;;;;;13.32;1.73;;;;;;;;;;5118585;27;20038;-75
2022/07/09 12:56:26;;;;;;;15.73;1.40;;;;;;;;;;5135524;27;20042;-74
2022/07/09 12:58:52;;;;;;;13.80;1.30;;;;;;;;;;5136807;27;20046;-75
2022/07/09 13:01:17;;;;;;;12.82;1.10;;;;;;;;;;5118728;27;20488;-75
2022/07/09 13:03:42;;;;;;;6.18;0.98;;;;;;;;;;5118728;27;20043;-75
2022/07/09 13:06:30;;;;;;;18.88;1.75;;;;;;;;;;5136100;27;20042;-75
2022/07/09 13:08:54;;;;;;;13.52;1.80;;;;;;;;;;5135424;27;20480;-75
2022/07/09 13:11:20;;;;;;;13.07;1.55;;;;;;;;;;5135664;27;20031;-76
2022/07/09 13:13:46;;;;;;;15.30;1.83;;;;;;;;;;5118122;27;20082;-75
2022/07/09 13:16:12;;;;;;;26.63;2.45;;;;;;;;;;5134876;27;20092;-74
2022/07/09 13:18:38;;;;;;;3.38;1.30;;;;;;;;;;5118199;27;20023;-74
2022/07/09 13:21:04;;;;;;;14.32;2.10;;;;;;;;;;5136583;27;20396;-74
2022/07/09 13:23:31;;;;;;;4.03;1.65;;;;;;;;;;5135047;27;20066;-74
2022/07/09 13:25:58;;;;;;;4.72;1.52;;;;;;;;;;5136440;27;20035;-75
2022/07/09 13:28:25;;;;;;;2.95;1.00;;;;;;;;;;5135307;27;20109;-74
2022/07/09 13:30:51;;;;;;;4.13;1.27;;;;;;;;;;5118078;27;20088;-74
2022/07/09 13:33:16;;;;;;;4.95;1.15;;;;;;;;;;5135280;27;20042;-75
2022/07/09 13:35:42;;;;;;;6.97;1.13;;;;;;;;;;5117948;27;20027;-74
2022/07/09 13:38:08;;;;;;;8.55;1.50;;;;;;;;;;5134166;27;20032;-75
2022/07/09 13:40:34;;;;;;;10.13;1.40;;;;;;;;;;5118069;27;20042;-75
2022/07/09 13:43:00;;;;;;;16.45;1.65;;;;;;;;;;5136476;27;20399;-76
2022/07/09 13:45:28;;;;;;;36.78;3.50;;;;;;;;;;5136184;27;20114;-75
2022/07/09 13:47:54;;;;;;;11.63;2.45;;;;;;;;;;5134037;27;20126;-76
2022/07/09 13:50:21;;;;;;;8.02;1.73;;;;;;;;;;5134426;27;20088;-77
2022/07/09 13:52:48;;;;;;;6.47;2.15;;;;;;;;;;5134446;27;20027;-76
2022/07/09 13:55:13;;;;;;;2.25;1.08;;;;;;;;;;5135560;27;20534;-76
2022/07/09 13:57:39;;;;;;;1.80;1.20;;;;;;;;;;5135774;27;20023;-76
2022/07/09 14:00:09;;;;;;;3.22;1.27;;;;;;;;;;5135405;27;20090;-76
2022/07/09 14:02:35;;;;;;;5.15;1.10;;;;;;;;;;5133817;27;20039;-76
2022/07/09 14:05:01;;;;;;;3.80;1.42;;;;;;;;;;5135679;27;20362;-76
2022/07/09 14:07:27;;;;;;;5.00;1.38;;;;;;;;;;5133281;27;20035;-75
2022/07/09 14:09:52;;;;;;;5.43;2.17;;;;;;;;;;5135516;27;20038;-75
2022/07/09 14:12:18;;;;;;;6.28;1.50;;;;;;;;;;5117114;27;20076;-75
2022/07/09 14:14:44;;;;;;;4.40;1.40;;;;;;;;;;5135380;27;20196;-75
2022/07/09 14:17:10;;;;;;;3.65;1.58;;;;;;;;;;5132986;27;20035;-75
2022/07/09 14:19:36;;;;;;;3.85;1.45;;;;;;;;;;5135437;27;20505;-75
2022/07/09 14:22:02;;;;;;;12.60;1.70;;;;;;;;;;5116829;27;20039;-75
2022/07/09 14:24:28;;;;;;;7.38;1.58;;;;;;;;;;5135159;27;20500;-75
2022/07/09 14:26:54;;;;;;;3.38;1.65;;;;;;;;;;5116722;27;20027;-75
2022/07/09 14:29:20;;;;;;;3.13;1.17;;;;;;;;;;5133950;27;20037;-74
2022/07/09 14:31:46;;;;;;;2.72;1.20;;;;;;;;;;5116742;27;20404;-75
2022/07/09 14:34:11;;;;;;;7.35;2.00;;;;;;;;;;5134896;27;20035;-75
2022/07/09 14:36:37;;;;;;;5.10;1.30;;;;;;;;;;5134959;27;20035;-75
2022/07/09 14:39:03;;;;;;;7.55;1.42;;;;;;;;;;5115509;27;20039;-75
2022/07/09 14:41:30;;;;;;;6.28;1.85;;;;;;;;;;5133549;27;20069;-75